createdAt,value
2023-05-03T00:00:09.729Z,96.2060
2023-05-03T00:01:11.886Z,96.2405
2023-05-03T00:02:14.067Z,96.3067
2023-05-03T00:03:16.247Z,96.2536
2023-05-03T00:04:18.470Z,96.1192
2023-05-03T00:05:20.705Z,96.1582
2023-05-03T00:06:22.868Z,96.2571
2023-05-03T00:07:25.261Z,96.3468
2023-05-03T00:08:27.431Z,96.1312
2023-05-03T00:09:29.561Z,96.2624
2023-05-03T00:10:31.891Z,96.5959
2023-05-03T00:11:34.052Z,96.5328
2023-05-03T00:12:36.169Z,96.6576
2023-05-03T00:13:38.332Z,96.7059
2023-05-03T00:14:40.493Z,96.9266
2023-05-03T00:15:42.619Z,97.1009
2023-05-03T00:16:44.821Z,97.0289
2023-05-03T00:17:47.236Z,96.8958
2023-05-03T00:18:49.561Z,96.9027
2023-05-03T00:19:51.673Z,96.9175
2023-05-03T00:20:53.802Z,96.8337
2023-05-03T00:21:55.933Z,96.7647
2023-05-03T00:22:58.094Z,96.9212
2023-05-03T00:24:00.258Z,96.8590
2023-05-03T00:25:00.758Z,96.8306
2023-05-03T00:26:02.879Z,96.7255
2023-05-03T00:27:05.017Z,96.8437
2023-05-03T00:28:07.188Z,96.7922
2023-05-03T00:29:09.358Z,96.9068
2023-05-03T00:30:11.519Z,96.9140
2023-05-03T00:31:13.693Z,96.9342
2023-05-03T00:32:15.883Z,96.8638
2023-05-03T00:33:18.064Z,96.8427
2023-05-03T00:34:20.242Z,96.9201
2023-05-03T00:35:22.389Z,97.0242
2023-05-03T00:36:24.527Z,97.0586
2023-05-03T00:37:26.682Z,97.2027
2023-05-03T00:38:28.847Z,97.4082
2023-05-03T00:39:31.025Z,97.5374
2023-05-03T00:40:33.184Z,97.5494
2023-05-03T00:41:35.355Z,97.5550
2023-05-03T00:42:37.534Z,97.5738
2023-05-03T00:43:39.679Z,97.6797
2023-05-03T00:44:41.826Z,97.6900
2023-05-03T00:45:44.005Z,97.7679
2023-05-03T00:46:46.204Z,97.8743
2023-05-03T00:47:48.418Z,97.9398
2023-05-03T00:48:50.616Z,97.9109
2023-05-03T00:49:52.826Z,97.9934
2023-05-03T00:50:54.965Z,98.0953
2023-05-03T00:51:57.133Z,98.1880
2023-05-03T00:52:59.296Z,98.3787
2023-05-03T00:54:01.476Z,98.4075
2023-05-03T00:55:03.870Z,98.5143
2023-05-03T00:56:06.042Z,98.4921
2023-05-03T00:57:08.216Z,98.6283
2023-05-03T00:58:10.403Z,98.5999
2023-05-03T00:59:12.572Z,98.6836
2023-05-03T01:00:14.785Z,98.6771
2023-05-03T01:01:16.955Z,98.5370
2023-05-03T01:02:19.099Z,98.5069
2023-05-03T01:03:21.306Z,98.5014
2023-05-03T01:04:23.547Z,98.4565
2023-05-03T01:05:25.697Z,98.4930
2023-05-03T01:06:27.925Z,98.5455
2023-05-03T01:07:30.147Z,98.4768
2023-05-03T01:08:32.368Z,98.4401
2023-05-03T01:09:34.496Z,98.4748
2023-05-03T01:10:36.674Z,98.5304
2023-05-03T01:11:38.830Z,98.5185
2023-05-03T01:12:40.976Z,98.4902
2023-05-03T01:13:43.129Z,98.5022
2023-05-03T01:14:45.291Z,98.5591
2023-05-03T01:15:47.488Z,98.6031
2023-05-03T01:16:49.634Z,98.6006
2023-05-03T01:17:51.826Z,98.6482
2023-05-03T01:18:53.965Z,98.7224
2023-05-03T01:19:56.641Z,98.7582
2023-05-03T01:20:58.804Z,98.7426
2023-05-03T01:22:00.938Z,98.6958
2023-05-03T01:23:03.049Z,98.6647
2023-05-03T01:24:05.203Z,98.7278
2023-05-03T01:25:07.327Z,98.7877
2023-05-03T01:26:09.468Z,98.8345
2023-05-03T01:27:11.631Z,98.7710
2023-05-03T01:28:13.803Z,98.6934
2023-05-03T01:29:15.984Z,98.6622
2023-05-03T01:30:18.132Z,98.5060
2023-05-03T01:31:20.367Z,98.4205
2023-05-03T01:32:22.598Z,98.4853
2023-05-03T01:33:24.817Z,98.4117
2023-05-03T01:34:27.005Z,98.4321
2023-05-03T01:35:29.263Z,98.4905
2023-05-03T01:36:31.417Z,98.5810
2023-05-03T01:37:33.620Z,98.7093
2023-05-03T01:38:35.790Z,98.7921
2023-05-03T01:39:37.963Z,98.8163
2023-05-03T01:40:40.151Z,98.8042
2023-05-03T01:41:42.336Z,98.8578
2023-05-03T01:42:44.540Z,98.8902
2023-05-03T01:43:46.731Z,98.9390
2023-05-03T01:44:48.887Z,98.9347
2023-05-03T01:45:51.085Z,99.0330
2023-05-03T01:46:53.270Z,99.1189
2023-05-03T01:47:55.485Z,99.1841
2023-05-03T01:48:57.663Z,99.1720
2023-05-03T01:49:59.991Z,99.1803
2023-05-03T01:51:02.275Z,99.2054
2023-05-03T01:52:04.446Z,99.2540
2023-05-03T01:53:06.631Z,99.2160
2023-05-03T01:54:08.817Z,99.2345
2023-05-03T01:55:11.015Z,99.2854
2023-05-03T01:56:13.161Z,99.2907
2023-05-03T01:57:15.362Z,99.1162
2023-05-03T01:58:17.532Z,99.1621
2023-05-03T01:59:19.733Z,99.1709
2023-05-03T02:00:21.920Z,99.1225
2023-05-03T02:01:24.142Z,99.1636
2023-05-03T02:02:26.339Z,99.1223
2023-05-03T02:03:28.510Z,99.0782
2023-05-03T02:04:31.304Z,99.0338
2023-05-03T02:05:33.263Z,99.0060
2023-05-03T02:06:35.509Z,99.0755
2023-05-03T02:07:37.695Z,99.0283
2023-05-03T02:08:39.873Z,99.0095
2023-05-03T02:09:42.038Z,98.9520
2023-05-03T02:10:44.245Z,98.9070
2023-05-03T02:11:46.454Z,98.9627
2023-05-03T02:12:48.633Z,98.8806
2023-05-03T02:13:50.834Z,98.8901
2023-05-03T02:14:53.028Z,98.7952
2023-05-03T02:15:55.249Z,98.6673
2023-05-03T02:16:57.462Z,98.7140
2023-05-03T02:17:59.894Z,98.7256
2023-05-03T02:19:02.088Z,98.7854
2023-05-03T02:20:04.616Z,98.8507
2023-05-03T02:21:07.000Z,98.7236
2023-05-03T02:22:09.223Z,98.4754
2023-05-03T02:23:11.413Z,98.3673
2023-05-03T02:24:13.598Z,98.3358
2023-05-03T02:25:15.824Z,98.3590
2023-05-03T02:26:18.046Z,98.2366
2023-05-03T02:27:20.237Z,98.2487
2023-05-03T02:28:22.445Z,98.4248
2023-05-03T02:29:24.636Z,98.4616
2023-05-03T02:30:26.813Z,98.5627
2023-05-03T02:31:29.071Z,98.5245
2023-05-03T02:32:31.387Z,98.5580
2023-05-03T02:33:33.616Z,98.5857
2023-05-03T02:34:35.775Z,98.7440
2023-05-03T02:35:37.971Z,98.7986
2023-05-03T02:36:40.157Z,99.0189
2023-05-03T02:37:42.355Z,99.2031
2023-05-03T02:38:44.522Z,99.2467
2023-05-03T02:39:46.706Z,99.2720
2023-05-03T02:40:48.907Z,99.2701
2023-05-03T02:41:51.076Z,99.3273
2023-05-03T02:42:53.280Z,99.3845
2023-05-03T02:43:55.499Z,99.3504
2023-05-03T02:44:57.698Z,99.4682
2023-05-03T02:45:59.923Z,99.6855
2023-05-03T02:47:02.160Z,99.7543
2023-05-03T02:48:04.349Z,99.9413
2023-05-03T02:49:06.550Z,100.0000
2023-05-03T02:50:08.961Z,100.0000
2023-05-03T02:51:11.120Z,100.0000
2023-05-03T02:52:13.318Z,100.0000
2023-05-03T02:53:15.518Z,100.0000
2023-05-03T02:54:17.735Z,100.0000
2023-05-03T02:55:19.926Z,100.0000
2023-05-03T02:56:22.136Z,100.0000
2023-05-03T02:57:24.353Z,100.0000
2023-05-03T02:58:26.556Z,100.0000
2023-05-03T02:59:28.727Z,100.0000
2023-05-03T03:00:30.925Z,100.0000
2023-05-03T03:01:33.131Z,100.0000
2023-05-03T03:02:35.372Z,100.0000
2023-05-03T03:03:37.617Z,100.0000
2023-05-03T03:04:39.832Z,100.0000
2023-05-03T03:05:42.029Z,100.0000
2023-05-03T03:06:44.293Z,100.0000
2023-05-03T03:07:46.858Z,100.0000
2023-05-03T03:08:49.073Z,100.0000
2023-05-03T03:09:51.265Z,100.0000
2023-05-03T03:10:53.461Z,100.0000
2023-05-03T03:11:55.659Z,100.0000
2023-05-03T03:12:57.874Z,100.0000
2023-05-03T03:14:00.058Z,100.0000
2023-05-03T03:15:02.275Z,100.0000
2023-05-03T03:16:04.513Z,100.0000
2023-05-03T03:17:06.693Z,100.0000
2023-05-03T03:18:08.894Z,100.0000
2023-05-03T03:19:11.125Z,100.0000
2023-05-03T03:20:13.312Z,100.0000
2023-05-03T03:21:15.484Z,100.0000
2023-05-03T03:22:17.668Z,100.0000
2023-05-03T03:23:19.838Z,100.0000
2023-05-03T03:24:22.021Z,100.0000
2023-05-03T03:25:24.202Z,100.0000
2023-05-03T03:26:26.437Z,100.0000
2023-05-03T03:27:28.626Z,100.0000
2023-05-03T03:28:30.816Z,100.0000
2023-05-03T03:29:33.020Z,100.0000
2023-05-03T03:30:35.257Z,100.0000
2023-05-03T03:31:37.447Z,100.0000
2023-05-03T03:32:39.720Z,100.0000
2023-05-03T03:33:41.900Z,100.0000
2023-05-03T03:34:44.075Z,100.0000
2023-05-03T03:35:46.240Z,100.0000
2023-05-03T03:36:48.393Z,100.0000
2023-05-03T03:37:50.563Z,100.0000
2023-05-03T03:38:52.747Z,100.0000
2023-05-03T03:39:54.930Z,100.0000
2023-05-03T03:40:57.103Z,100.0000
2023-05-03T03:41:59.290Z,100.0000
2023-05-03T03:43:01.479Z,100.0000
2023-05-03T03:44:03.656Z,100.0000
2023-05-03T03:45:05.832Z,100.0000
2023-05-03T03:46:08.024Z,100.0000
2023-05-03T03:47:10.299Z,100.0000
2023-05-03T03:48:12.623Z,100.0000
2023-05-03T03:49:14.840Z,100.0000
2023-05-03T03:50:17.024Z,100.0000
2023-05-03T03:51:19.196Z,100.0000
2023-05-03T03:52:21.416Z,100.0000
2023-05-03T03:53:23.635Z,100.0000
2023-05-03T03:54:25.829Z,100.0000
2023-05-03T03:55:28.037Z,100.0000
2023-05-03T03:56:30.271Z,100.0000
2023-05-03T03:57:32.479Z,100.0000
2023-05-03T03:58:34.690Z,100.0000
2023-05-03T03:59:36.931Z,100.0000
2023-05-03T04:00:39.136Z,99.9965
2023-05-03T04:01:41.327Z,99.9786
2023-05-03T04:02:43.819Z,99.9693
2023-05-03T04:03:46.236Z,100.0000
2023-05-03T04:04:48.402Z,99.9994
2023-05-03T04:05:50.613Z,99.9882
2023-05-03T04:06:52.900Z,99.9736
2023-05-03T04:07:55.126Z,99.9992
2023-05-03T04:08:57.308Z,99.8271
2023-05-03T04:10:01.552Z,99.6026
2023-05-03T04:11:00.336Z,99.5083
2023-05-03T04:12:02.530Z,99.5528
2023-05-03T04:13:04.791Z,99.6421
2023-05-03T04:14:06.977Z,99.5736
2023-05-03T04:15:09.124Z,99.5559
2023-05-03T04:16:11.300Z,99.6172
2023-05-03T04:17:13.556Z,99.6378
2023-05-03T04:18:15.712Z,99.6139
2023-05-03T04:19:17.911Z,99.6778
2023-05-03T04:20:20.105Z,99.7077
2023-05-03T04:21:22.341Z,99.6598
2023-05-03T04:22:24.522Z,99.7691
2023-05-03T04:23:26.744Z,99.6806
2023-05-03T04:24:28.934Z,99.6605
2023-05-03T04:25:31.105Z,99.6450
2023-05-03T04:26:33.330Z,99.5412
2023-05-03T04:27:35.490Z,99.4982
2023-05-03T04:28:37.683Z,99.5298
2023-05-03T04:29:39.907Z,99.5080
2023-05-03T04:30:42.094Z,99.5570
2023-05-03T04:31:44.314Z,99.5123
2023-05-03T04:32:46.568Z,99.3910
2023-05-03T04:33:48.738Z,99.3672
2023-05-03T04:34:51.964Z,99.2998
2023-05-03T04:35:52.340Z,99.2844
2023-05-03T04:36:54.548Z,99.3570
2023-05-03T04:37:56.712Z,99.3058
2023-05-03T04:38:58.879Z,99.1960
2023-05-03T04:40:01.268Z,99.0980
2023-05-03T04:41:03.713Z,99.1645
2023-05-03T04:42:05.885Z,99.0387
2023-05-03T04:43:08.089Z,99.0614
2023-05-03T04:44:10.361Z,98.9976
2023-05-03T04:45:12.516Z,98.9586
2023-05-03T04:46:14.746Z,98.9181
2023-05-03T04:47:16.926Z,98.8892
2023-05-03T04:48:19.116Z,98.7022
2023-05-03T04:49:21.342Z,98.6262
2023-05-03T04:50:23.604Z,98.6339
2023-05-03T04:51:25.820Z,98.6305
2023-05-03T04:52:28.049Z,98.6250
2023-05-03T04:53:30.204Z,98.4397
2023-05-03T04:54:32.436Z,98.2758
2023-05-03T04:55:34.640Z,98.1974
2023-05-03T04:56:36.800Z,98.1286
2023-05-03T04:57:39.768Z,98.0350
2023-05-03T04:58:41.940Z,98.0133
2023-05-03T04:59:44.126Z,97.9929
2023-05-03T05:00:46.338Z,97.9793
2023-05-03T05:01:48.571Z,97.9883
2023-05-03T05:02:50.788Z,97.9697
2023-05-03T05:03:53.181Z,98.0363
2023-05-03T05:04:55.626Z,97.9022
2023-05-03T05:05:57.791Z,98.0445
2023-05-03T05:06:59.997Z,98.0770
2023-05-03T05:08:02.479Z,98.1351
2023-05-03T05:09:04.682Z,98.0710
2023-05-03T05:10:06.929Z,98.1721
2023-05-03T05:11:09.138Z,97.9813
2023-05-03T05:12:11.403Z,98.2192
2023-05-03T05:13:13.644Z,98.3659
2023-05-03T05:14:15.857Z,98.4585
2023-05-03T05:15:18.104Z,98.4611
2023-05-03T05:16:20.346Z,98.5885
2023-05-03T05:17:22.623Z,98.5895
2023-05-03T05:18:24.838Z,98.6780
2023-05-03T05:19:27.009Z,98.6173
2023-05-03T05:20:29.196Z,98.3579
2023-05-03T05:21:31.394Z,98.5037
2023-05-03T05:22:33.604Z,98.5669
2023-05-03T05:23:35.807Z,98.6721
2023-05-03T05:24:38.033Z,98.5024
2023-05-03T05:25:40.214Z,98.4555
2023-05-03T05:26:42.403Z,98.2685
2023-05-03T05:27:44.594Z,98.3100
2023-05-03T05:28:46.789Z,98.3702
2023-05-03T05:29:48.963Z,98.5275
2023-05-03T05:30:51.155Z,98.6018
2023-05-03T05:31:53.411Z,98.5115
2023-05-03T05:32:55.599Z,98.5344
2023-05-03T05:33:57.756Z,98.4714
2023-05-03T05:34:59.957Z,98.3439
2023-05-03T05:36:02.180Z,98.4636
2023-05-03T05:37:04.456Z,98.0540
2023-05-03T05:38:06.683Z,97.9083
2023-05-03T05:39:08.871Z,97.9929
2023-05-03T05:40:11.086Z,98.1099
2023-05-03T05:41:13.285Z,98.0074
2023-05-03T05:42:15.482Z,97.6756
2023-05-03T05:43:17.750Z,97.4729
2023-05-03T05:44:20.028Z,97.5819
2023-05-03T05:45:22.237Z,97.0525
2023-05-03T05:46:24.493Z,96.9105
2023-05-03T05:47:27.089Z,97.4994
2023-05-03T05:48:29.357Z,97.2434
2023-05-03T05:49:31.542Z,97.1839
2023-05-03T05:50:33.771Z,97.2753
2023-05-03T05:51:36.059Z,97.2147
2023-05-03T05:52:38.279Z,97.4841
2023-05-03T05:53:40.447Z,97.1812
2023-05-03T05:54:42.792Z,96.9874
2023-05-03T05:55:44.986Z,97.1064
2023-05-03T05:56:47.180Z,96.7445
2023-05-03T05:57:49.705Z,96.2476
2023-05-03T05:58:51.911Z,96.3518
2023-05-03T05:59:54.253Z,96.2536
2023-05-03T06:00:56.462Z,95.9235
2023-05-03T06:01:58.752Z,96.1160
2023-05-03T06:03:00.997Z,96.1740
2023-05-03T06:04:03.203Z,96.3495
2023-05-03T06:05:07.531Z,95.9633
2023-05-03T06:06:06.336Z,96.0095
2023-05-03T06:07:08.513Z,95.9343
2023-05-03T06:08:10.715Z,95.7127
2023-05-03T06:09:23.531Z,96.4651
2023-05-03T06:10:15.639Z,95.6708
2023-05-03T06:11:17.901Z,95.7739
2023-05-03T06:12:20.392Z,96.1320
2023-05-03T06:13:22.575Z,96.1172
2023-05-03T06:14:24.739Z,96.2878
2023-05-03T06:15:34.468Z,96.3201
2023-05-03T06:16:36.676Z,96.0407
2023-05-03T06:17:38.977Z,95.6320
2023-05-03T06:18:41.158Z,95.4027
2023-05-03T06:19:45.071Z,95.1461
2023-05-03T06:20:43.725Z,95.3107
2023-05-03T06:21:45.932Z,95.3630
2023-05-03T06:22:48.184Z,95.2152
2023-05-03T06:23:50.403Z,95.0762
2023-05-03T06:24:52.626Z,95.1021
2023-05-03T06:25:54.890Z,95.0258
2023-05-03T06:26:57.140Z,95.1489
2023-05-03T06:27:59.377Z,94.9886
2023-05-03T06:29:01.603Z,94.5418
2023-05-03T06:30:04.046Z,94.6039
2023-05-03T06:31:06.548Z,94.9904
2023-05-03T06:32:08.889Z,94.8255
2023-05-03T06:33:11.145Z,95.0468
2023-05-03T06:34:13.339Z,95.0237
2023-05-03T06:35:15.515Z,94.9440
2023-05-03T06:36:17.679Z,95.2755
2023-05-03T06:37:19.882Z,95.1590
2023-05-03T06:38:22.053Z,94.8946
2023-05-03T06:39:24.322Z,94.3122
2023-05-03T06:40:26.496Z,94.0953
2023-05-03T06:41:28.671Z,94.2388
2023-05-03T06:42:32.014Z,93.7332
2023-05-03T06:43:34.224Z,93.9711
2023-05-03T06:44:36.494Z,93.7936
2023-05-03T06:45:38.744Z,93.5120
2023-05-03T06:46:41.056Z,93.7155
2023-05-03T06:47:43.387Z,94.5032
2023-05-03T06:48:45.719Z,94.4167
2023-05-03T06:49:47.909Z,93.8737
2023-05-03T06:50:50.118Z,94.1020
2023-05-03T06:51:52.319Z,94.1460
2023-05-03T06:52:54.547Z,94.5537
2023-05-03T06:53:56.743Z,93.9415
2023-05-03T06:54:58.958Z,93.4003
2023-05-03T06:56:01.162Z,93.1578
2023-05-03T06:57:03.381Z,92.8941
2023-05-03T06:58:05.600Z,92.8716
2023-05-03T06:59:07.813Z,92.2095
2023-05-03T07:00:10.018Z,92.7400
2023-05-03T07:01:12.304Z,92.9205
2023-05-03T07:02:14.611Z,93.1065
2023-05-03T07:03:16.939Z,93.1454
2023-05-03T07:04:19.274Z,92.7701
2023-05-03T07:05:21.491Z,92.7952
2023-05-03T07:06:23.986Z,92.1950
2023-05-03T07:07:26.258Z,91.1650
2023-05-03T07:08:28.427Z,90.6766
2023-05-03T07:09:42.061Z,90.9698
2023-05-03T07:10:31.686Z,91.4196
2023-05-03T07:11:33.882Z,91.3007
2023-05-03T07:12:33.991Z,91.4139
2023-05-03T07:13:36.164Z,91.8643
2023-05-03T07:14:38.394Z,91.2933
2023-05-03T07:15:40.573Z,89.9241
2023-05-03T07:16:42.942Z,90.7640
2023-05-03T07:17:45.300Z,89.8832
2023-05-03T07:18:47.504Z,91.2954
2023-05-03T07:19:49.794Z,91.7058
2023-05-03T07:20:52.006Z,90.7934
2023-05-03T07:21:54.201Z,90.2251
2023-05-03T07:22:56.380Z,89.5571
2023-05-03T07:23:58.569Z,89.6019
2023-05-03T07:25:00.889Z,89.2710
2023-05-03T07:26:03.108Z,89.4505
2023-05-03T07:27:05.295Z,88.2364
2023-05-03T07:28:07.512Z,88.0097
2023-05-03T07:29:17.306Z,88.4923
2023-05-03T07:30:19.517Z,88.9480
2023-05-03T07:31:21.662Z,89.1951
2023-05-03T07:32:23.982Z,89.4048
2023-05-03T07:33:26.299Z,88.0011
2023-05-03T07:34:28.517Z,85.8860
2023-05-03T07:35:30.960Z,87.0624
2023-05-03T07:36:33.208Z,87.4871
2023-05-03T07:37:35.705Z,84.6930
2023-05-03T07:38:37.767Z,86.8846
2023-05-03T07:39:40.124Z,88.2593
2023-05-03T07:40:42.332Z,86.9370
2023-05-03T07:42:45.673Z,86.4376
2023-05-03T07:43:48.026Z,88.1012
2023-05-03T07:44:50.216Z,88.4714
2023-05-03T07:45:52.407Z,88.8197
2023-05-03T07:46:54.593Z,87.4847
2023-05-03T07:47:57.541Z,86.9978
2023-05-03T07:48:59.789Z,87.2268
2023-05-03T07:50:02.262Z,84.6449
2023-05-03T07:51:04.620Z,83.4150
2023-05-03T07:52:06.817Z,86.0207
2023-05-03T07:53:09.035Z,86.7439
2023-05-03T07:54:11.196Z,87.4354
2023-05-03T07:55:13.419Z,87.7026
2023-05-03T07:56:15.633Z,88.7847
2023-05-03T07:57:17.825Z,88.7451
2023-05-03T07:58:28.399Z,88.2395
2023-05-03T07:59:20.867Z,88.5628
2023-05-03T08:00:22.916Z,87.1731
2023-05-03T08:01:25.180Z,87.6832
2023-05-03T08:02:27.498Z,86.8559
2023-05-03T08:03:29.799Z,86.0906
2023-05-03T08:04:32.424Z,87.6654
2023-05-03T08:05:34.831Z,88.1291
2023-05-03T08:06:37.031Z,87.7564
2023-05-03T08:07:39.313Z,86.1896
2023-05-03T08:08:41.517Z,84.8648
2023-05-03T08:09:43.694Z,83.7882
2023-05-03T08:10:45.880Z,84.2265
2023-05-03T08:11:48.087Z,84.9927
2023-05-03T08:12:50.339Z,84.0891
2023-05-03T08:13:52.524Z,82.0790
2023-05-03T08:14:54.786Z,83.7145
2023-05-03T08:15:57.201Z,83.8147
2023-05-03T08:16:59.425Z,84.6731
2023-05-03T08:18:01.917Z,82.1999
2023-05-03T08:19:04.076Z,83.5811
2023-05-03T08:20:06.504Z,82.6950
2023-05-03T08:21:08.896Z,72.7509
2023-05-03T08:22:11.156Z,73.7801
2023-05-03T08:23:13.508Z,77.5054
2023-05-03T08:24:16.212Z,80.2384
2023-05-03T08:25:18.531Z,82.3409
2023-05-03T08:26:20.752Z,82.8992
2023-05-03T08:27:23.044Z,83.2231
2023-05-03T08:28:25.274Z,83.8185
2023-05-03T08:29:27.835Z,83.7272
2023-05-03T08:30:30.156Z,79.5616
2023-05-03T08:31:32.435Z,79.9351
2023-05-03T08:32:34.700Z,82.4245
2023-05-03T08:33:36.973Z,82.9383
2023-05-03T08:34:39.190Z,80.9833
2023-05-03T08:35:41.517Z,80.5044
2023-05-03T08:36:43.819Z,79.6025
2023-05-03T08:37:46.016Z,79.6814
2023-05-03T08:38:48.320Z,80.2230
2023-05-03T08:39:50.596Z,81.2572
2023-05-03T08:40:52.842Z,81.4062
2023-05-03T08:41:55.073Z,83.5352
2023-05-03T08:42:57.288Z,82.6880
2023-05-03T08:43:59.535Z,82.8314
2023-05-03T08:45:01.769Z,82.4756
2023-05-03T08:46:04.021Z,81.3650
2023-05-03T08:47:06.661Z,81.4171
2023-05-03T08:48:09.055Z,82.2589
2023-05-03T08:49:11.314Z,81.2430
2023-05-03T08:50:13.572Z,79.3504
2023-05-03T08:51:16.140Z,73.5004
2023-05-03T08:52:18.353Z,72.5086
2023-05-03T08:53:20.575Z,78.7608
2023-05-03T08:54:22.846Z,77.0260
2023-05-03T08:55:25.091Z,73.1845
2023-05-03T08:56:27.387Z,74.1492
2023-05-03T08:57:29.676Z,73.1495
2023-05-03T08:58:31.919Z,69.2023
2023-05-03T08:59:34.184Z,72.5274
2023-05-03T09:00:36.452Z,73.5418
2023-05-03T09:01:39.597Z,72.2011
2023-05-03T09:02:41.950Z,71.5440
2023-05-03T09:03:44.455Z,67.9389
2023-05-03T09:04:49.130Z,69.8796
2023-05-03T09:05:51.355Z,65.3070
2023-05-03T09:06:53.772Z,66.7806
2023-05-03T09:07:56.003Z,70.8832
2023-05-03T09:08:58.228Z,73.6207
2023-05-03T09:10:00.510Z,73.6472
2023-05-03T09:11:03.043Z,72.0474
2023-05-03T09:12:05.252Z,72.5339
2023-05-03T09:13:07.491Z,71.0206
2023-05-03T09:14:10.058Z,68.7323
2023-05-03T09:15:12.254Z,70.8595
2023-05-03T09:16:14.547Z,72.1564
2023-05-03T09:17:17.124Z,71.9253
2023-05-03T09:18:19.468Z,71.6723
2023-05-03T09:19:21.821Z,71.9011
2023-05-03T09:20:24.057Z,70.5303
2023-05-03T09:21:26.273Z,67.3889
2023-05-03T09:22:28.612Z,70.0307
2023-05-03T09:23:38.343Z,68.1209
2023-05-03T09:24:33.300Z,70.3476
2023-05-03T09:25:35.594Z,69.0599
2023-05-03T09:26:37.814Z,68.8893
2023-05-03T09:27:40.036Z,68.5402
2023-05-03T09:28:42.269Z,70.0677
2023-05-03T09:29:44.755Z,67.9580
2023-05-03T09:30:47.011Z,69.7129
2023-05-03T09:31:49.340Z,68.9946
2023-05-03T09:32:51.558Z,70.0099
2023-05-03T09:33:53.760Z,69.2438
2023-05-03T09:34:55.994Z,67.8412
2023-05-03T09:35:58.261Z,68.7463
2023-05-03T09:37:00.546Z,67.5902
2023-05-03T09:38:02.774Z,65.9397
2023-05-03T09:39:05.049Z,68.7094
2023-05-03T09:40:07.276Z,66.3422
2023-05-03T09:41:09.499Z,64.9164
2023-05-03T09:42:11.790Z,66.5889
2023-05-03T09:43:14.056Z,68.0622
2023-05-03T09:44:16.829Z,66.9098
2023-05-03T09:45:19.092Z,67.7383
2023-05-03T09:46:21.458Z,68.2372
2023-05-03T09:47:23.742Z,67.5569
2023-05-03T09:48:26.026Z,69.1697
2023-05-03T09:49:28.239Z,70.1821
2023-05-03T09:50:30.455Z,68.5101
2023-05-03T09:51:32.665Z,68.6421
2023-05-03T09:52:34.910Z,68.4895
2023-05-03T09:53:37.180Z,70.1873
2023-05-03T09:54:39.416Z,69.9385
2023-05-03T09:55:41.633Z,66.8531
2023-05-03T09:57:07.327Z,66.9921
2023-05-03T09:58:02.439Z,66.5228
2023-05-03T09:59:04.654Z,68.0805
2023-05-03T10:00:06.930Z,68.6085
2023-05-03T10:01:09.144Z,66.7409
2023-05-03T10:02:11.401Z,67.5242
2023-05-03T10:03:13.623Z,70.1580
2023-05-03T10:04:15.958Z,68.2033
2023-05-03T10:05:18.253Z,66.7127
2023-05-03T10:06:20.465Z,68.5847
2023-05-03T10:07:22.737Z,66.7994
2023-05-03T10:08:24.968Z,62.7210
2023-05-03T10:09:27.225Z,61.2048
2023-05-03T10:10:29.448Z,62.1848
2023-05-03T10:11:31.716Z,65.7202
2023-05-03T10:12:32.396Z,66.3596
2023-05-03T10:13:34.589Z,67.0862
2023-05-03T10:14:44.435Z,67.1162
2023-05-03T10:15:46.696Z,65.9601
2023-05-03T10:16:49.005Z,65.4494
2023-05-03T10:17:51.318Z,64.8269
2023-05-03T10:18:53.555Z,64.0098
2023-05-03T10:19:55.801Z,62.9322
2023-05-03T10:20:58.039Z,64.8541
2023-05-03T10:22:00.299Z,64.2311
2023-05-03T10:23:02.567Z,65.3900
2023-05-03T10:24:04.779Z,63.4343
2023-05-03T10:25:08.295Z,63.9186
2023-05-03T10:26:17.878Z,62.2939
2023-05-03T10:27:20.287Z,66.6258
2023-05-03T10:28:22.560Z,66.3796
2023-05-03T10:29:24.799Z,66.9702
2023-05-03T10:30:27.134Z,65.7778
2023-05-03T10:31:29.372Z,64.5887
2023-05-03T10:32:31.663Z,65.9975
2023-05-03T10:33:33.913Z,65.3275
2023-05-03T10:34:36.167Z,63.9753
2023-05-03T10:35:38.390Z,64.1940
2023-05-03T10:36:49.398Z,62.7227
2023-05-03T10:37:41.492Z,65.4783
2023-05-03T10:38:43.697Z,61.0236
2023-05-03T10:39:45.926Z,63.6667
2023-05-03T10:40:48.818Z,63.7527
2023-05-03T10:41:51.070Z,66.2184
2023-05-03T10:42:53.770Z,65.6016
2023-05-03T10:43:56.155Z,60.3033
2023-05-03T10:44:58.440Z,58.1508
2023-05-03T10:46:00.711Z,60.2933
2023-05-03T10:47:02.902Z,60.3423
2023-05-03T10:48:05.196Z,59.2709
2023-05-03T10:49:07.435Z,58.1779
2023-05-03T10:50:09.690Z,58.1405
2023-05-03T10:51:11.938Z,59.4185
2023-05-03T10:52:14.181Z,59.0136
2023-05-03T10:53:16.414Z,59.6946
2023-05-03T10:54:18.678Z,60.4669
2023-05-03T10:55:20.956Z,60.1566
2023-05-03T10:56:23.221Z,58.3704
2023-05-03T10:57:25.510Z,58.9094
2023-05-03T10:58:27.717Z,59.6643
2023-05-03T10:59:29.928Z,58.6087
2023-05-03T11:00:32.211Z,57.8532
2023-05-03T11:01:34.485Z,56.5998
2023-05-03T11:02:36.729Z,57.4055
2023-05-03T11:03:38.937Z,58.4770
2023-05-03T11:04:41.329Z,57.0392
2023-05-03T11:05:43.807Z,58.1750
2023-05-03T11:06:46.178Z,58.3592
2023-05-03T11:07:48.544Z,58.8200
2023-05-03T11:08:50.737Z,58.2022
2023-05-03T11:09:52.953Z,59.3287
2023-05-03T11:10:55.268Z,59.9697
2023-05-03T11:11:57.559Z,58.5981
2023-05-03T11:12:59.778Z,58.7673
2023-05-03T11:14:02.017Z,57.8727
2023-05-03T11:15:04.485Z,58.8901
2023-05-03T11:16:07.031Z,58.1735
2023-05-03T11:17:09.240Z,57.0587
2023-05-03T11:18:11.533Z,56.7359
2023-05-03T11:19:13.856Z,57.4363
2023-05-03T11:20:16.097Z,54.3377
2023-05-03T11:21:18.328Z,53.5490
2023-05-03T11:22:20.568Z,56.7475
2023-05-03T11:23:22.809Z,56.8266
2023-05-03T11:24:25.032Z,54.4878
2023-05-03T11:25:27.280Z,55.3114
2023-05-03T11:26:37.332Z,55.5361
2023-05-03T11:27:32.284Z,56.3890
2023-05-03T11:28:34.614Z,56.3115
2023-05-03T11:29:37.274Z,56.7556
2023-05-03T11:30:39.493Z,56.9614
2023-05-03T11:31:41.845Z,57.7413
2023-05-03T11:32:44.086Z,57.2242
2023-05-03T11:33:47.977Z,53.4604
2023-05-03T11:34:46.700Z,54.1619
2023-05-03T11:35:48.916Z,53.7868
2023-05-03T11:36:51.174Z,56.7672
2023-05-03T11:37:53.445Z,55.9186
2023-05-03T11:38:55.670Z,57.2735
2023-05-03T11:39:57.997Z,56.9945
2023-05-03T11:41:00.251Z,56.2669
2023-05-03T11:42:02.498Z,56.1896
2023-05-03T11:43:04.764Z,53.7121
2023-05-03T11:44:15.863Z,54.9108
2023-05-03T11:45:08.332Z,53.3708
2023-05-03T11:46:18.134Z,53.8337
2023-05-03T11:47:20.459Z,54.4631
2023-05-03T11:48:22.798Z,54.3725
2023-05-03T11:49:25.920Z,54.2288
2023-05-03T11:50:28.133Z,54.7632
2023-05-03T11:51:30.341Z,55.0138
2023-05-03T11:52:32.653Z,53.9790
2023-05-03T11:53:34.910Z,54.3693
2023-05-03T11:54:37.223Z,54.3537
2023-05-03T11:55:39.598Z,53.6798
2023-05-03T11:56:41.840Z,55.1498
2023-05-03T11:57:44.094Z,55.5946
2023-05-03T11:58:46.374Z,55.7476
2023-05-03T11:59:48.625Z,54.5895
2023-05-03T12:00:50.857Z,55.3714
2023-05-03T12:01:53.136Z,55.6628
2023-05-03T12:02:55.495Z,55.0131
2023-05-03T12:03:57.891Z,55.1907
2023-05-03T12:05:00.373Z,53.4978
2023-05-03T12:06:03.464Z,53.3701
2023-05-03T12:07:04.417Z,52.5357
2023-05-03T12:08:03.859Z,50.0513
2023-05-03T12:09:08.042Z,51.5987
2023-05-03T12:10:16.832Z,50.4365
2023-05-03T12:11:11.500Z,53.3710
2023-05-03T12:12:14.484Z,52.4701
2023-05-03T12:13:16.875Z,53.8839
2023-05-03T12:14:16.268Z,53.2563
2023-05-03T12:15:18.900Z,53.2440
2023-05-03T12:16:21.578Z,55.3288
2023-05-03T12:17:24.291Z,53.2992
2023-05-03T12:18:26.922Z,51.2897
2023-05-03T12:21:32.018Z,52.2642
2023-05-03T12:22:34.857Z,49.2229
2023-05-03T12:23:37.314Z,52.4530
2023-05-03T12:24:39.766Z,51.8801
2023-05-03T12:25:44.797Z,52.1054
2023-05-03T12:26:43.903Z,52.7235
2023-05-03T12:27:52.298Z,51.0706
2023-05-03T12:28:47.881Z,51.0739
2023-05-03T12:29:51.789Z,53.1356
2023-05-03T12:30:52.984Z,53.5677
2023-05-03T12:31:52.219Z,55.1987
2023-05-03T12:32:54.554Z,55.3619
2023-05-03T12:34:19.959Z,52.8988